PWSweather.com
Personal Weather Stations
Station Observations
SELKIRK1
Ontario, Selkirk, ON N0A 1P0

OntarioSelkirk, ON N0A 1P0

Lat: 42.8083652, Lon: -79.94971040000001

Elevation: 583

Station Type: Acurite 5 in 1

http://gavinsurf.com

High Low Average
Temperature 76.8°F24.9°C 69.8°F21.0°C 73.8°F23.2°C
Dew Point 74.7°F23.7°C 69.5°F20.8°C 73.0°F22.8°C
Winds 16.1 mph 25.9 kmh Calm Calm 8.0 mph SSW12.9 kmh SSW
Wind Gusts 20.7 mph33.3 kmh -- 9.0 mph14.5 kmh
Humidity 99% 93% 97%
Pressure 31.79 in1076.5 mb 31.21 in1056.9 mb -
Precipitation 0.00 in0.0 mm - -
Hour Temp Dew Point Humidity Winds Wind Gusts Pressure Precip Precip Rate Daily Precip Total
12:00 AM 74.0°F23.3°C 73.7°F23.2°C 99% Calm Calm -- 31.70 in1073.5 mb - 0.00 in0.0 mm 0.00 in0.0 mm
12:10 AM 74.5°F23.6°C 73.6°F23.1°C 97% 5.8 mph S9.3 kmh S 8.1 mph13.0 kmh 31.70 in1073.5 mb - 0.00 in0.0 mm 0.00 in0.0 mm
12:15 AM 74.5°F23.6°C 73.6°F23.1°C 97% 3.5 mph S5.6 kmh S 5.8 mph9.3 kmh 31.70 in1073.5 mb - 0.00 in0.0 mm 0.00 in0.0 mm
12:20 AM 74.5°F23.6°C 73.6°F23.1°C 97% 5.8 mph SSE9.3 kmh SSE 6.9 mph11.1 kmh 31.70 in1073.5 mb - 0.00 in0.0 mm 0.00 in0.0 mm
12:25 AM 74.5°F23.6°C 73.6°F23.1°C 97% 4.6 mph SSE7.4 kmh SSE 5.8 mph9.3 kmh 31.70 in1073.5 mb - 0.00 in0.0 mm 0.00 in0.0 mm
12:30 AM 74.5°F23.6°C 73.6°F23.1°C 97% 4.6 mph S7.4 kmh S 6.9 mph11.1 kmh 31.70 in1073.5 mb - 0.00 in0.0 mm 0.00 in0.0 mm
12:35 AM 74.5°F23.6°C 73.6°F23.1°C 97% 5.8 mph S9.3 kmh S 6.9 mph11.1 kmh 31.70 in1073.5 mb - 0.00 in0.0 mm 0.00 in0.0 mm
12:40 AM 74.5°F23.6°C 73.6°F23.1°C 97% 5.8 mph SSW9.3 kmh SSW 5.8 mph9.3 kmh 31.70 in1073.5 mb - 0.00 in0.0 mm 0.00 in0.0 mm
12:45 AM 74.5°F23.6°C 73.6°F23.1°C 97% 4.6 mph SSE7.4 kmh SSE 6.9 mph11.1 kmh 31.70 in1073.5 mb - 0.00 in0.0 mm 0.00 in0.0 mm
12:50 AM 74.5°F23.6°C 73.6°F23.1°C 97% 5.8 mph S9.3 kmh S 6.9 mph11.1 kmh 31.70 in1073.5 mb - 0.00 in0.0 mm 0.00 in0.0 mm
12:55 AM 74.3°F23.5°C 73.4°F23.0°C 97% 3.5 mph SSE5.6 kmh SSE 4.6 mph7.4 kmh 31.70 in1073.5 mb - 0.00 in0.0 mm 0.00 in0.0 mm
01:00 AM 74.3°F23.5°C 73.4°F23.0°C 97% 4.6 mph S7.4 kmh S 5.8 mph9.3 kmh 31.70 in1073.5 mb - 0.00 in0.0 mm 0.00 in0.0 mm
01:10 AM 74.3°F23.5°C 73.4°F23.0°C 97% 5.8 mph SE9.3 kmh SE 5.8 mph9.3 kmh 31.70 in1073.5 mb - 0.00 in0.0 mm 0.00 in0.0 mm
01:15 AM 74.3°F23.5°C 73.4°F23.0°C 97% 6.9 mph S11.1 kmh S 6.9 mph11.1 kmh 31.70 in1073.5 mb - 0.00 in0.0 mm 0.00 in0.0 mm
01:20 AM 74.3°F23.5°C 73.4°F23.0°C 97% 5.8 mph SSE9.3 kmh SSE 8.1 mph13.0 kmh 31.70 in1073.5 mb - 0.00 in0.0 mm 0.00 in0.0 mm
01:25 AM 74.3°F23.5°C 73.4°F23.0°C 97% 6.9 mph SSE11.1 kmh SSE 6.9 mph11.1 kmh 31.70 in1073.5 mb - 0.00 in0.0 mm 0.00 in0.0 mm
01:30 AM 74.3°F23.5°C 73.4°F23.0°C 97% 5.8 mph S9.3 kmh S 5.8 mph9.3 kmh 31.70 in1073.5 mb - 0.00 in0.0 mm 0.00 in0.0 mm
01:35 AM 74.3°F23.5°C 73.4°F23.0°C 97% 5.8 mph SE9.3 kmh SE 6.9 mph11.1 kmh 31.70 in1073.5 mb - 0.00 in0.0 mm 0.00 in0.0 mm
01:40 AM 74.3°F23.5°C 73.4°F23.0°C 97% 4.6 mph S7.4 kmh S 5.8 mph9.3 kmh 31.70 in1073.5 mb - 0.00 in0.0 mm 0.00 in0.0 mm
01:45 AM 74.3°F23.5°C 73.4°F23.0°C 97% 4.6 mph SSE7.4 kmh SSE 6.9 mph11.1 kmh 31.70 in1073.5 mb - 0.00 in0.0 mm 0.00 in0.0 mm
01:50 AM 74.3°F23.5°C 73.4°F23.0°C 97% 6.9 mph SE11.1 kmh SE 6.9 mph11.1 kmh 31.70 in1073.5 mb - 0.00 in0.0 mm 0.00 in0.0 mm
01:55 AM 74.5°F23.6°C 73.6°F23.1°C 97% 6.9 mph S11.1 kmh S 9.2 mph14.8 kmh 31.70 in1073.5 mb - 0.00 in0.0 mm 0.00 in0.0 mm
02:00 AM 74.5°F23.6°C 73.6°F23.1°C 97% 6.9 mph S11.1 kmh S 6.9 mph11.1 kmh 31.70 in1073.5 mb - 0.00 in0.0 mm 0.00 in0.0 mm
02:10 AM 74.3°F23.5°C 73.4°F23.0°C 97% 5.8 mph S9.3 kmh S 6.9 mph11.1 kmh 31.70 in1073.5 mb - 0.00 in0.0 mm 0.00 in0.0 mm
02:15 AM 74.3°F23.5°C 73.4°F23.0°C 97% 5.8 mph S9.3 kmh S 5.8 mph9.3 kmh 31.70 in1073.5 mb - 0.00 in0.0 mm 0.00 in0.0 mm
02:20 AM 74.1°F23.4°C 73.5°F23.1°C 98% 4.6 mph S7.4 kmh S 4.6 mph7.4 kmh 31.70 in1073.5 mb - 0.00 in0.0 mm 0.00 in0.0 mm
02:25 AM 74.1°F23.4°C 73.5°F23.1°C 98% 4.6 mph S7.4 kmh S 5.8 mph9.3 kmh 31.70 in1073.5 mb - 0.00 in0.0 mm 0.00 in0.0 mm
02:30 AM 74.1°F23.4°C 73.5°F23.1°C 98% 4.6 mph SE7.4 kmh SE 6.9 mph11.1 kmh 31.70 in1073.5 mb - 0.00 in0.0 mm 0.00 in0.0 mm
02:35 AM 74.1°F23.4°C 73.5°F23.1°C 98% 5.8 mph SSW9.3 kmh SSW 6.9 mph11.1 kmh 31.70 in1073.5 mb - 0.00 in0.0 mm 0.00 in0.0 mm
02:40 AM 74.1°F23.4°C 73.5°F23.1°C 98% 4.6 mph S7.4 kmh S 5.8 mph9.3 kmh 31.70 in1073.5 mb - 0.00 in0.0 mm 0.00 in0.0 mm
02:45 AM 74.1°F23.4°C 73.5°F23.1°C 98% 5.8 mph S9.3 kmh S 5.8 mph9.3 kmh 31.70 in1073.5 mb - 0.00 in0.0 mm 0.00 in0.0 mm
02:50 AM 74.1°F23.4°C 73.5°F23.1°C 98% 4.6 mph SW7.4 kmh SW 4.6 mph7.4 kmh 31.70 in1073.5 mb - 0.00 in0.0 mm 0.00 in0.0 mm
02:55 AM 74.1°F23.4°C 73.5°F23.1°C 98% 4.6 mph SW7.4 kmh SW 4.6 mph7.4 kmh 31.70 in1073.5 mb - 0.00 in0.0 mm 0.00 in0.0 mm
03:00 AM 74.1°F23.4°C 73.5°F23.1°C 98% 4.6 mph S7.4 kmh S 5.8 mph9.3 kmh 31.70 in1073.5 mb - 0.00 in0.0 mm 0.00 in0.0 mm
03:10 AM 74.3°F23.5°C 73.7°F23.2°C 98% 6.9 mph SW11.1 kmh SW 8.1 mph13.0 kmh 31.70 in1073.5 mb - 0.00 in0.0 mm 0.00 in0.0 mm
03:15 AM 74.3°F23.5°C 73.7°F23.2°C 98% 8.1 mph S13.0 kmh S 10.4 mph16.7 kmh 31.70 in1073.5 mb - 0.00 in0.0 mm 0.00 in0.0 mm
03:20 AM 74.3°F23.5°C 73.7°F23.2°C 98% 8.1 mph SSW13.0 kmh SSW 9.2 mph14.8 kmh 31.70 in1073.5 mb - 0.00 in0.0 mm 0.00 in0.0 mm
03:25 AM 74.3°F23.5°C 73.7°F23.2°C 98% 9.2 mph SSW14.8 kmh SSW 9.2 mph14.8 kmh 31.70 in1073.5 mb - 0.00 in0.0 mm 0.00 in0.0 mm
03:30 AM 74.3°F23.5°C 73.7°F23.2°C 98% 10.4 mph SSW16.7 kmh SSW 10.4 mph16.7 kmh 31.70 in1073.5 mb - 0.00 in0.0 mm 0.00 in0.0 mm
03:35 AM 74.3°F23.5°C 73.7°F23.2°C 98% 10.4 mph SSW16.7 kmh SSW 10.4 mph16.7 kmh 31.70 in1073.5 mb - 0.00 in0.0 mm 0.00 in0.0 mm
03:40 AM 74.3°F23.5°C 73.7°F23.2°C 98% 10.4 mph S16.7 kmh S 10.4 mph16.7 kmh 31.70 in1073.5 mb - 0.00 in0.0 mm 0.00 in0.0 mm
03:45 AM 74.3°F23.5°C 73.7°F23.2°C 98% 11.5 mph SSW18.5 kmh SSW 12.7 mph20.4 kmh 31.70 in1073.5 mb - 0.00 in0.0 mm 0.00 in0.0 mm
03:50 AM 74.3°F23.5°C 73.7°F23.2°C 98% 9.2 mph SSW14.8 kmh SSW 10.4 mph16.7 kmh 31.70 in1073.5 mb - 0.00 in0.0 mm 0.00 in0.0 mm
03:55 AM 74.3°F23.5°C 73.7°F23.2°C 98% 9.2 mph SSW14.8 kmh SSW 9.2 mph14.8 kmh 31.70 in1073.5 mb - 0.00 in0.0 mm 0.00 in0.0 mm
04:00 AM 74.3°F23.5°C 73.7°F23.2°C 98% 9.2 mph S14.8 kmh S 10.4 mph16.7 kmh 31.70 in1073.5 mb - 0.00 in0.0 mm 0.00 in0.0 mm
04:10 AM 74.0°F23.3°C 73.7°F23.2°C 99% 8.1 mph S13.0 kmh S 9.2 mph14.8 kmh 31.70 in1073.5 mb - 0.00 in0.0 mm 0.00 in0.0 mm
04:15 AM 74.0°F23.3°C 73.7°F23.2°C 99% 6.9 mph SSW11.1 kmh SSW 6.9 mph11.1 kmh 31.70 in1073.5 mb - 0.00 in0.0 mm 0.00 in0.0 mm
04:20 AM 74.0°F23.3°C 73.7°F23.2°C 99% 8.1 mph SSW13.0 kmh SSW 9.2 mph14.8 kmh 31.70 in1073.5 mb - 0.00 in0.0 mm 0.00 in0.0 mm
04:25 AM 74.0°F23.3°C 73.4°F23.0°C 98% 10.4 mph SW16.7 kmh SW 10.4 mph16.7 kmh 31.70 in1073.5 mb - 0.00 in0.0 mm 0.00 in0.0 mm
04:30 AM 74.0°F23.3°C 73.4°F23.0°C 98% 9.2 mph SSW14.8 kmh SSW 10.4 mph16.7 kmh 31.70 in1073.5 mb - 0.00 in0.0 mm 0.00 in0.0 mm
04:35 AM 74.1°F23.4°C 73.5°F23.1°C 98% 6.9 mph SSW11.1 kmh SSW 8.1 mph13.0 kmh 31.70 in1073.5 mb - 0.00 in0.0 mm 0.00 in0.0 mm
04:40 AM 74.1°F23.4°C 73.5°F23.1°C 98% 6.9 mph S11.1 kmh S 6.9 mph11.1 kmh 31.70 in1073.5 mb - 0.00 in0.0 mm 0.00 in0.0 mm
04:45 AM 74.1°F23.4°C 73.5°F23.1°C 98% 6.9 mph S11.1 kmh S 6.9 mph11.1 kmh 31.70 in1073.5 mb - 0.00 in0.0 mm 0.00 in0.0 mm
04:50 AM 74.1°F23.4°C 73.8°F23.2°C 99% 6.9 mph SSW11.1 kmh SSW 6.9 mph11.1 kmh 31.70 in1073.5 mb - 0.00 in0.0 mm 0.00 in0.0 mm
04:55 AM 74.1°F23.4°C 73.8°F23.2°C 99% 6.9 mph SSW11.1 kmh SSW 8.1 mph13.0 kmh 31.70 in1073.5 mb - 0.00 in0.0 mm 0.00 in0.0 mm
05:00 AM 74.1°F23.4°C 73.8°F23.2°C 99% 6.9 mph S11.1 kmh S 6.9 mph11.1 kmh 31.70 in1073.5 mb - 0.00 in0.0 mm 0.00 in0.0 mm
05:10 AM 74.0°F23.3°C 73.4°F23.0°C 98% 8.1 mph SSW13.0 kmh SSW 8.1 mph13.0 kmh 31.70 in1073.5 mb - 0.00 in0.0 mm 0.00 in0.0 mm
05:15 AM 74.1°F23.4°C 73.5°F23.1°C 98% 6.9 mph SSW11.1 kmh SSW 6.9 mph11.1 kmh 31.70 in1073.5 mb - 0.00 in0.0 mm 0.00 in0.0 mm
05:20 AM 74.1°F23.4°C 73.5°F23.1°C 98% 6.9 mph SSW11.1 kmh SSW 8.1 mph13.0 kmh 31.70 in1073.5 mb - 0.00 in0.0 mm 0.00 in0.0 mm
05:25 AM 74.1°F23.4°C 73.5°F23.1°C 98% 9.2 mph SSW14.8 kmh SSW 9.2 mph14.8 kmh 31.70 in1073.5 mb - 0.00 in0.0 mm 0.00 in0.0 mm
05:30 AM 74.1°F23.4°C 73.2°F22.9°C 97% 11.5 mph SSW18.5 kmh SSW 11.5 mph18.5 kmh 31.70 in1073.5 mb - 0.00 in0.0 mm 0.00 in0.0 mm
05:35 AM 74.1°F23.4°C 73.2°F22.9°C 97% 8.1 mph SSW13.0 kmh SSW 9.2 mph14.8 kmh 31.70 in1073.5 mb - 0.00 in0.0 mm 0.00 in0.0 mm
05:40 AM 74.0°F23.3°C 73.4°F23.0°C 98% 8.1 mph S13.0 kmh S 9.2 mph14.8 kmh 31.70 in1073.5 mb - 0.00 in0.0 mm 0.00 in0.0 mm
05:45 AM 74.0°F23.3°C 73.4°F23.0°C 98% 9.2 mph S14.8 kmh S 11.5 mph18.5 kmh 31.70 in1073.5 mb - 0.00 in0.0 mm 0.00 in0.0 mm
05:50 AM 74.0°F23.3°C 73.4°F23.0°C 98% 11.5 mph SW18.5 kmh SW 11.5 mph18.5 kmh 31.70 in1073.5 mb - 0.00 in0.0 mm 0.00 in0.0 mm
05:55 AM 74.0°F23.3°C 73.4°F23.0°C 98% 10.4 mph SW16.7 kmh SW 10.4 mph16.7 kmh 31.70 in1073.5 mb - 0.00 in0.0 mm 0.00 in0.0 mm
06:00 AM 73.8°F23.2°C 73.2°F22.9°C 98% 11.5 mph SSW18.5 kmh SSW 11.5 mph18.5 kmh 31.70 in1073.5 mb - 0.00 in0.0 mm 0.00 in0.0 mm
06:10 AM 73.8°F23.2°C 73.2°F22.9°C 98% 11.5 mph SSW18.5 kmh SSW 13.8 mph22.2 kmh 31.70 in1073.5 mb - 0.00 in0.0 mm 0.00 in0.0 mm
06:15 AM 73.8°F23.2°C 73.2°F22.9°C 98% 10.4 mph SSW16.7 kmh SSW 11.5 mph18.5 kmh 31.70 in1073.5 mb - 0.00 in0.0 mm 0.00 in0.0 mm
06:20 AM 73.8°F23.2°C 73.2°F22.9°C 98% 10.4 mph SSW16.7 kmh SSW 10.4 mph16.7 kmh 31.70 in1073.5 mb - 0.00 in0.0 mm 0.00 in0.0 mm
06:25 AM 73.8°F23.2°C 73.2°F22.9°C 98% 12.7 mph SSW20.4 kmh SSW 13.8 mph22.2 kmh 31.70 in1073.5 mb - 0.00 in0.0 mm 0.00 in0.0 mm
06:30 AM 73.8°F23.2°C 73.2°F22.9°C 98% 11.5 mph SSW18.5 kmh SSW 12.7 mph20.4 kmh 31.70 in1073.5 mb - 0.00 in0.0 mm 0.00 in0.0 mm
06:35 AM 73.8°F23.2°C 73.5°F23.1°C 99% 11.5 mph SSW18.5 kmh SSW 11.5 mph18.5 kmh 31.70 in1073.5 mb - 0.00 in0.0 mm 0.00 in0.0 mm
06:40 AM 73.8°F23.2°C 73.2°F22.9°C 98% 11.5 mph S18.5 kmh S 12.7 mph20.4 kmh 31.70 in1073.5 mb - 0.00 in0.0 mm 0.00 in0.0 mm
06:45 AM 73.8°F23.2°C 73.5°F23.1°C 99% 12.7 mph SSW20.4 kmh SSW 13.8 mph22.2 kmh 31.70 in1073.5 mb - 0.00 in0.0 mm 0.00 in0.0 mm
06:50 AM 73.8°F23.2°C 73.5°F23.1°C 99% 13.8 mph SSW22.2 kmh SSW 13.8 mph22.2 kmh 31.70 in1073.5 mb - 0.00 in0.0 mm 0.00 in0.0 mm
06:55 AM 73.8°F23.2°C 73.2°F22.9°C 98% 11.5 mph SSW18.5 kmh SSW 12.7 mph20.4 kmh 31.70 in1073.5 mb - 0.00 in0.0 mm 0.00 in0.0 mm
07:00 AM 73.8°F23.2°C 73.2°F22.9°C 98% 12.7 mph SSW20.4 kmh SSW 15.0 mph24.1 kmh 31.70 in1073.5 mb - 0.00 in0.0 mm 0.00 in0.0 mm
07:10 AM 73.8°F23.2°C 73.2°F22.9°C 98% 13.8 mph SW22.2 kmh SW 16.1 mph25.9 kmh 31.70 in1073.5 mb - 0.00 in0.0 mm 0.00 in0.0 mm
07:15 AM 73.8°F23.2°C 73.2°F22.9°C 98% 12.7 mph SSW20.4 kmh SSW 15.0 mph24.1 kmh 31.70 in1073.5 mb - 0.00 in0.0 mm 0.00 in0.0 mm
07:20 AM 73.8°F23.2°C 73.2°F22.9°C 98% 13.8 mph SSW22.2 kmh SSW 15.0 mph24.1 kmh 31.70 in1073.5 mb - 0.00 in0.0 mm 0.00 in0.0 mm
07:25 AM 73.8°F23.2°C 73.2°F22.9°C 98% 13.8 mph SSW22.2 kmh SSW 16.1 mph25.9 kmh 31.70 in1073.5 mb - 0.00 in0.0 mm 0.00 in0.0 mm
07:30 AM 73.8°F23.2°C 73.2°F22.9°C 98% 13.8 mph S22.2 kmh S 17.3 mph27.8 kmh 31.70 in1073.5 mb - 0.00 in0.0 mm 0.00 in0.0 mm
07:35 AM 73.8°F23.2°C 73.2°F22.9°C 98% 12.7 mph SW20.4 kmh SW 13.8 mph22.2 kmh 31.70 in1073.5 mb - 0.00 in0.0 mm 0.00 in0.0 mm
07:40 AM 74.0°F23.3°C 73.4°F23.0°C 98% 11.5 mph SSW18.5 kmh SSW 11.5 mph18.5 kmh 31.70 in1073.5 mb - 0.00 in0.0 mm 0.00 in0.0 mm
07:45 AM 74.0°F23.3°C 73.4°F23.0°C 98% 11.5 mph S18.5 kmh S 12.7 mph20.4 kmh 31.70 in1073.5 mb - 0.00 in0.0 mm 0.00 in0.0 mm
07:50 AM 74.1°F23.4°C 73.5°F23.1°C 98% 11.5 mph SSW18.5 kmh SSW 12.7 mph20.4 kmh 31.70 in1073.5 mb - 0.00 in0.0 mm 0.00 in0.0 mm
07:55 AM 74.1°F23.4°C 73.5°F23.1°C 98% 9.2 mph SW14.8 kmh SW 10.4 mph16.7 kmh 31.70 in1073.5 mb - 0.00 in0.0 mm 0.00 in0.0 mm
08:00 AM 74.1°F23.4°C 73.2°F22.9°C 97% 10.4 mph SSW16.7 kmh SSW 11.5 mph18.5 kmh 31.70 in1073.5 mb - 0.00 in0.0 mm 0.00 in0.0 mm
08:10 AM 74.1°F23.4°C 73.2°F22.9°C 97% 10.4 mph SSW16.7 kmh SSW 11.5 mph18.5 kmh 31.70 in1073.5 mb - 0.00 in0.0 mm 0.00 in0.0 mm
08:15 AM 74.3°F23.5°C 73.4°F23.0°C 97% 11.5 mph SSW18.5 kmh SSW 11.5 mph18.5 kmh 31.70 in1073.5 mb - 0.00 in0.0 mm 0.00 in0.0 mm
08:20 AM 74.3°F23.5°C 73.7°F23.2°C 98% 8.1 mph SSW13.0 kmh SSW 9.2 mph14.8 kmh 31.70 in1073.5 mb - 0.00 in0.0 mm 0.00 in0.0 mm
08:25 AM 74.3°F23.5°C 73.7°F23.2°C 98% 8.1 mph SW13.0 kmh SW 9.2 mph14.8 kmh 31.70 in1073.5 mb - 0.00 in0.0 mm 0.00 in0.0 mm
08:30 AM 74.3°F23.5°C 73.7°F23.2°C 98% 9.2 mph SW14.8 kmh SW 10.4 mph16.7 kmh 31.70 in1073.5 mb - 0.00 in0.0 mm 0.00 in0.0 mm
08:35 AM 74.3°F23.5°C 73.7°F23.2°C 98% 9.2 mph SW14.8 kmh SW 10.4 mph16.7 kmh 31.70 in1073.5 mb - 0.00 in0.0 mm 0.00 in0.0 mm
08:40 AM 74.3°F23.5°C 73.7°F23.2°C 98% 9.2 mph SW14.8 kmh SW 10.4 mph16.7 kmh 31.70 in1073.5 mb - 0.00 in0.0 mm 0.00 in0.0 mm
08:45 AM 74.1°F23.4°C 73.5°F23.1°C 98% 9.2 mph SW14.8 kmh SW 11.5 mph18.5 kmh 31.70 in1073.5 mb - 0.00 in0.0 mm 0.00 in0.0 mm
08:50 AM 74.1°F23.4°C 73.5°F23.1°C 98% 11.5 mph SW18.5 kmh SW 15.0 mph24.1 kmh 31.70 in1073.5 mb - 0.00 in0.0 mm 0.00 in0.0 mm
08:55 AM 74.1°F23.4°C 73.5°F23.1°C 98% 11.5 mph SW18.5 kmh SW 11.5 mph18.5 kmh 31.70 in1073.5 mb - 0.00 in0.0 mm 0.00 in0.0 mm
09:00 AM 74.1°F23.4°C 73.5°F23.1°C 98% 9.2 mph SW14.8 kmh SW 11.5 mph18.5 kmh 31.70 in1073.5 mb - 0.00 in0.0 mm 0.00 in0.0 mm
09:10 AM 74.1°F23.4°C 73.2°F22.9°C 97% 11.5 mph SSW18.5 kmh SSW 13.8 mph22.2 kmh 31.70 in1073.5 mb - 0.00 in0.0 mm 0.00 in0.0 mm
09:15 AM 74.3°F23.5°C 73.4°F23.0°C 97% 9.2 mph SSW14.8 kmh SSW 10.4 mph16.7 kmh 31.70 in1073.5 mb - 0.00 in0.0 mm 0.00 in0.0 mm
09:20 AM 74.3°F23.5°C 73.4°F23.0°C 97% 10.4 mph S16.7 kmh S 10.4 mph16.7 kmh 31.70 in1073.5 mb - 0.00 in0.0 mm 0.00 in0.0 mm
09:25 AM 74.3°F23.5°C 73.7°F23.2°C 98% 9.2 mph S14.8 kmh S 10.4 mph16.7 kmh 31.70 in1073.5 mb - 0.00 in0.0 mm 0.00 in0.0 mm
09:30 AM 74.3°F23.5°C 73.7°F23.2°C 98% 10.4 mph SSW16.7 kmh SSW 11.5 mph18.5 kmh 31.70 in1073.5 mb - 0.00 in0.0 mm 0.00 in0.0 mm
09:35 AM 74.3°F23.5°C 73.7°F23.2°C 98% 10.4 mph SSW16.7 kmh SSW 12.7 mph20.4 kmh 31.70 in1073.5 mb - 0.00 in0.0 mm 0.00 in0.0 mm
09:40 AM 74.3°F23.5°C 73.4°F23.0°C 97% 10.4 mph SW16.7 kmh SW 10.4 mph16.7 kmh 31.70 in1073.5 mb - 0.00 in0.0 mm 0.00 in0.0 mm
09:45 AM 74.5°F23.6°C 73.6°F23.1°C 97% 9.2 mph SW14.8 kmh SW 12.7 mph20.4 kmh 31.70 in1073.5 mb - 0.00 in0.0 mm 0.00 in0.0 mm
09:50 AM 74.5°F23.6°C 73.6°F23.1°C 97% 10.4 mph SSW16.7 kmh SSW 10.4 mph16.7 kmh 31.70 in1073.5 mb - 0.00 in0.0 mm 0.00 in0.0 mm
09:55 AM 74.5°F23.6°C 73.6°F23.1°C 97% 10.4 mph SSW16.7 kmh SSW 10.4 mph16.7 kmh 31.70 in1073.5 mb - 0.00 in0.0 mm 0.00 in0.0 mm
10:00 AM 75.2°F24.0°C 74.0°F23.3°C 96% 11.5 mph SSW18.5 kmh SSW 12.7 mph20.4 kmh 31.70 in1073.5 mb - 0.00 in0.0 mm 0.00 in0.0 mm
10:10 AM 75.0°F23.9°C 73.8°F23.2°C 96% 12.7 mph SW20.4 kmh SW 13.8 mph22.2 kmh 31.70 in1073.5 mb - 0.00 in0.0 mm 0.00 in0.0 mm
10:15 AM 75.2°F24.0°C 74.0°F23.3°C 96% 10.4 mph SW16.7 kmh SW 10.4 mph16.7 kmh 31.70 in1073.5 mb - 0.00 in0.0 mm 0.00 in0.0 mm
10:20 AM 75.2°F24.0°C 74.0°F23.3°C 96% 10.4 mph SW16.7 kmh SW 11.5 mph18.5 kmh 31.70 in1073.5 mb - 0.00 in0.0 mm 0.00 in0.0 mm
10:25 AM 75.5°F24.2°C 74.2°F23.4°C 96% 12.7 mph SSW20.4 kmh SSW 15.0 mph24.1 kmh 31.70 in1073.5 mb - 0.00 in0.0 mm 0.00 in0.0 mm
10:30 AM 75.2°F24.0°C 73.7°F23.2°C 95% 15.0 mph S24.1 kmh S 16.1 mph25.9 kmh 31.70 in1073.5 mb - 0.00 in0.0 mm 0.00 in0.0 mm
10:35 AM 75.0°F23.9°C 73.5°F23.1°C 95% 16.1 mph SSW25.9 kmh SSW 20.7 mph33.3 kmh 31.70 in1073.5 mb - 0.00 in0.0 mm 0.00 in0.0 mm
10:40 AM 75.0°F23.9°C 73.5°F23.1°C 95% 11.5 mph SSW18.5 kmh SSW 11.5 mph18.5 kmh 31.70 in1073.5 mb - 0.00 in0.0 mm 0.00 in0.0 mm
10:45 AM 74.9°F23.8°C 73.7°F23.2°C 96% 15.0 mph SSW24.1 kmh SSW 17.3 mph27.8 kmh 31.70 in1073.5 mb - 0.00 in0.0 mm 0.00 in0.0 mm
10:50 AM 74.9°F23.8°C 73.7°F23.2°C 96% 12.7 mph S20.4 kmh S 13.8 mph22.2 kmh 31.70 in1073.5 mb - 0.00 in0.0 mm 0.00 in0.0 mm
10:55 AM 75.0°F23.9°C 73.8°F23.2°C 96% 13.8 mph SSW22.2 kmh SSW 16.1 mph25.9 kmh 31.70 in1073.5 mb - 0.00 in0.0 mm 0.00 in0.0 mm
11:00 AM 75.0°F23.9°C 73.8°F23.2°C 96% 13.8 mph SSW22.2 kmh SSW 17.3 mph27.8 kmh 31.70 in1073.5 mb - 0.00 in0.0 mm 0.00 in0.0 mm
11:10 AM 75.4°F24.1°C 74.2°F23.4°C 96% 11.5 mph SSW18.5 kmh SSW 10.4 mph16.7 kmh 31.70 in1073.5 mb - 0.00 in0.0 mm 0.00 in0.0 mm
11:15 AM 75.4°F24.1°C 74.2°F23.4°C 96% 10.4 mph SSW16.7 kmh SSW 12.7 mph20.4 kmh 31.70 in1073.5 mb - 0.00 in0.0 mm 0.00 in0.0 mm
11:20 AM 75.4°F24.1°C 74.2°F23.4°C 96% 9.2 mph SW14.8 kmh SW 10.4 mph16.7 kmh 31.70 in1073.5 mb - 0.00 in0.0 mm 0.00 in0.0 mm
11:25 AM 75.5°F24.2°C 73.9°F23.3°C 95% 10.4 mph SW16.7 kmh SW 12.7 mph20.4 kmh 31.70 in1073.5 mb - 0.00 in0.0 mm 0.00 in0.0 mm
11:30 AM 75.4°F24.1°C 73.8°F23.2°C 95% 10.4 mph SW16.7 kmh SW 10.4 mph16.7 kmh 31.70 in1073.5 mb - 0.00 in0.0 mm 0.00 in0.0 mm
11:35 AM 75.8°F24.3°C 74.2°F23.4°C 95% 11.5 mph SSW18.5 kmh SSW 13.8 mph22.2 kmh 31.70 in1073.5 mb - 0.00 in0.0 mm 0.00 in0.0 mm
11:40 AM 75.5°F24.2°C 73.9°F23.3°C 95% 10.4 mph SW16.7 kmh SW 11.5 mph18.5 kmh 31.70 in1073.5 mb - 0.00 in0.0 mm 0.00 in0.0 mm
11:45 AM 75.2°F24.0°C 74.0°F23.3°C 96% 11.5 mph SSW18.5 kmh SSW 15.0 mph24.1 kmh 31.70 in1073.5 mb - 0.00 in0.0 mm 0.00 in0.0 mm
11:50 AM 75.0°F23.9°C 73.8°F23.2°C 96% 10.4 mph SW16.7 kmh SW 11.5 mph18.5 kmh 31.70 in1073.5 mb - 0.00 in0.0 mm 0.00 in0.0 mm
11:55 AM 75.0°F23.9°C 73.8°F23.2°C 96% 9.2 mph S14.8 kmh S 9.2 mph14.8 kmh 31.70 in1073.5 mb - 0.00 in0.0 mm 0.00 in0.0 mm
12:00 PM 75.0°F23.9°C 73.8°F23.2°C 96% 11.5 mph SW18.5 kmh SW 12.7 mph20.4 kmh 31.70 in1073.5 mb - 0.00 in0.0 mm 0.00 in0.0 mm
12:10 PM 74.9°F23.8°C 73.7°F23.2°C 96% 9.2 mph SSW14.8 kmh SSW 10.4 mph16.7 kmh 31.70 in1073.5 mb - 0.00 in0.0 mm 0.00 in0.0 mm
12:15 PM 74.9°F23.8°C 73.7°F23.2°C 96% 10.4 mph SSW16.7 kmh SSW 11.5 mph18.5 kmh 31.70 in1073.5 mb - 0.00 in0.0 mm 0.00 in0.0 mm
12:20 PM 74.9°F23.8°C 73.7°F23.2°C 96% 13.8 mph SW22.2 kmh SW 16.1 mph25.9 kmh 31.70 in1073.5 mb - 0.00 in0.0 mm 0.00 in0.0 mm
12:25 PM 74.9°F23.8°C 73.7°F23.2°C 96% 13.8 mph SW22.2 kmh SW 15.0 mph24.1 kmh 31.70 in1073.5 mb - 0.00 in0.0 mm 0.00 in0.0 mm
12:30 PM 74.9°F23.8°C 73.4°F23.0°C 95% 13.8 mph SSW22.2 kmh SSW 15.0 mph24.1 kmh 31.70 in1073.5 mb - 0.00 in0.0 mm 0.00 in0.0 mm
12:35 PM 74.9°F23.8°C 73.4°F23.0°C 95% 13.8 mph SW22.2 kmh SW 15.0 mph24.1 kmh 31.70 in1073.5 mb - 0.00 in0.0 mm 0.00 in0.0 mm
12:40 PM 74.9°F23.8°C 73.7°F23.2°C 96% 10.4 mph SW16.7 kmh SW 11.5 mph18.5 kmh 31.70 in1073.5 mb - 0.00 in0.0 mm 0.00 in0.0 mm
12:45 PM 75.0°F23.9°C 74.0°F23.3°C 97% 8.1 mph SW13.0 kmh SW 11.5 mph18.5 kmh 31.70 in1073.5 mb - 0.00 in0.0 mm 0.00 in0.0 mm
12:50 PM 75.5°F24.2°C 74.3°F23.5°C 96% 6.9 mph SW11.1 kmh SW 8.1 mph13.0 kmh 31.70 in1073.5 mb - 0.00 in0.0 mm 0.00 in0.0 mm
12:55 PM 75.9°F24.4°C 74.3°F23.5°C 95% 5.8 mph SSW9.3 kmh SSW 8.1 mph13.0 kmh 31.70 in1073.5 mb - 0.00 in0.0 mm 0.00 in0.0 mm
01:00 PM 75.9°F24.4°C 74.3°F23.5°C 95% 8.1 mph SW13.0 kmh SW 10.4 mph16.7 kmh 31.70 in1073.5 mb - 0.00 in0.0 mm 0.00 in0.0 mm
01:10 PM 76.3°F24.6°C 74.4°F23.6°C 94% 6.9 mph SW11.1 kmh SW 6.9 mph11.1 kmh 31.70 in1073.5 mb - 0.00 in0.0 mm 0.00 in0.0 mm
01:15 PM 76.3°F24.6°C 74.4°F23.6°C 94% 6.9 mph SSW11.1 kmh SSW 10.4 mph16.7 kmh 31.70 in1073.5 mb - 0.00 in0.0 mm 0.00 in0.0 mm
01:20 PM 76.1°F24.5°C 74.2°F23.4°C 94% 8.1 mph SW13.0 kmh SW 9.2 mph14.8 kmh 31.70 in1073.5 mb - 0.00 in0.0 mm 0.00 in0.0 mm
01:25 PM 75.8°F24.3°C 74.0°F23.3°C 94% 10.4 mph SSW16.7 kmh SSW 10.4 mph16.7 kmh 31.70 in1073.5 mb - 0.00 in0.0 mm 0.00 in0.0 mm
01:30 PM 75.4°F24.1°C 73.5°F23.1°C 94% 9.2 mph SSW14.8 kmh SSW 13.8 mph22.2 kmh 31.70 in1073.5 mb - 0.00 in0.0 mm 0.00 in0.0 mm
01:35 PM 75.4°F24.1°C 73.5°F23.1°C 94% 9.2 mph SSW14.8 kmh SSW 11.5 mph18.5 kmh 31.70 in1073.5 mb - 0.00 in0.0 mm 0.00 in0.0 mm
01:40 PM 75.2°F24.0°C 73.7°F23.2°C 95% 10.4 mph SW16.7 kmh SW 11.5 mph18.5 kmh 31.70 in1073.5 mb - 0.00 in0.0 mm 0.00 in0.0 mm
01:45 PM 74.9°F23.8°C 73.4°F23.0°C 95% 9.2 mph SW14.8 kmh SW 10.4 mph16.7 kmh 31.70 in1073.5 mb - 0.00 in0.0 mm 0.00 in0.0 mm
01:50 PM 74.9°F23.8°C 73.4°F23.0°C 95% 9.2 mph SW14.8 kmh SW 10.4 mph16.7 kmh 31.70 in1073.5 mb - 0.00 in0.0 mm 0.00 in0.0 mm
01:55 PM 74.9°F23.8°C 73.4°F23.0°C 95% 12.7 mph SW20.4 kmh SW 15.0 mph24.1 kmh 31.70 in1073.5 mb - 0.00 in0.0 mm 0.00 in0.0 mm
02:00 PM 74.9°F23.8°C 73.4°F23.0°C 95% 11.5 mph SW18.5 kmh SW 12.7 mph20.4 kmh 31.70 in1073.5 mb - 0.00 in0.0 mm 0.00 in0.0 mm
02:10 PM 74.7°F23.7°C 73.5°F23.1°C 96% 12.7 mph SSW20.4 kmh SSW 13.8 mph22.2 kmh 31.70 in1073.5 mb - 0.00 in0.0 mm 0.00 in0.0 mm
02:15 PM 75.2°F24.0°C 74.0°F23.3°C 96% 10.4 mph SW16.7 kmh SW 11.5 mph18.5 kmh 31.70 in1073.5 mb - 0.00 in0.0 mm 0.00 in0.0 mm
02:20 PM 75.6°F24.2°C 74.0°F23.3°C 95% 11.5 mph SW18.5 kmh SW 13.8 mph22.2 kmh 31.70 in1073.5 mb - 0.00 in0.0 mm 0.00 in0.0 mm
02:25 PM 75.6°F24.2°C 74.1°F23.4°C 95% 12.7 mph SW20.4 kmh SW 12.7 mph20.4 kmh 31.70 in1073.5 mb - 0.00 in0.0 mm 0.00 in0.0 mm
02:30 PM 75.8°F24.3°C 73.9°F23.3°C 94% 11.5 mph SW18.5 kmh SW 12.7 mph20.4 kmh 31.70 in1073.5 mb - 0.00 in0.0 mm 0.00 in0.0 mm
02:35 PM 75.6°F24.2°C 73.7°F23.2°C 94% 10.4 mph SW16.7 kmh SW 12.7 mph20.4 kmh 31.70 in1073.5 mb - 0.00 in0.0 mm 0.00 in0.0 mm
02:40 PM 75.1°F23.9°C 73.3°F22.9°C 94% 10.4 mph SW16.7 kmh SW 10.4 mph16.7 kmh 31.70 in1073.5 mb - 0.00 in0.0 mm 0.00 in0.0 mm
02:45 PM 75.0°F23.9°C 73.5°F23.1°C 95% 9.2 mph SSW14.8 kmh SSW 10.4 mph16.7 kmh 31.70 in1073.5 mb - 0.00 in0.0 mm 0.00 in0.0 mm
02:50 PM 74.9°F23.8°C 73.4°F23.0°C 95% 9.2 mph SW14.8 kmh SW 11.5 mph18.5 kmh 31.70 in1073.5 mb - 0.00 in0.0 mm 0.00 in0.0 mm
02:55 PM 74.7°F23.7°C 73.2°F22.9°C 95% 10.4 mph SW16.7 kmh SW 11.5 mph18.5 kmh 31.70 in1073.5 mb - 0.00 in0.0 mm 0.00 in0.0 mm
03:00 PM 74.9°F23.8°C 73.4°F23.0°C 95% 11.5 mph SW18.5 kmh SW 12.7 mph20.4 kmh 31.70 in1073.5 mb - 0.00 in0.0 mm 0.00 in0.0 mm
03:10 PM 76.3°F24.6°C 74.4°F23.6°C 94% 12.7 mph SW20.4 kmh SW 13.8 mph22.2 kmh 31.70 in1073.5 mb - 0.00 in0.0 mm 0.00 in0.0 mm
03:15 PM 76.6°F24.8°C 74.7°F23.7°C 94% 11.5 mph SW18.5 kmh SW 12.7 mph20.4 kmh 31.70 in1073.5 mb - 0.00 in0.0 mm 0.00 in0.0 mm
03:20 PM 76.8°F24.9°C 74.6°F23.7°C 93% 12.7 mph SSW20.4 kmh SSW 15.0 mph24.1 kmh 31.70 in1073.5 mb - 0.00 in0.0 mm 0.00 in0.0 mm
03:25 PM 76.5°F24.7°C 74.6°F23.7°C 94% 12.7 mph SSW20.4 kmh SSW 12.7 mph20.4 kmh 31.70 in1073.5 mb - 0.00 in0.0 mm 0.00 in0.0 mm
03:30 PM 75.6°F24.2°C 73.7°F23.2°C 94% 12.7 mph SW20.4 kmh SW 12.7 mph20.4 kmh 31.70 in1073.5 mb - 0.00 in0.0 mm 0.00 in0.0 mm
03:35 PM 75.2°F24.0°C 73.7°F23.2°C 95% 10.4 mph SW16.7 kmh SW 12.7 mph20.4 kmh 31.70 in1073.5 mb - 0.00 in0.0 mm 0.00 in0.0 mm
03:40 PM 74.7°F23.7°C 73.5°F23.1°C 96% 9.2 mph SW14.8 kmh SW 10.4 mph16.7 kmh 31.70 in1073.5 mb - 0.00 in0.0 mm 0.00 in0.0 mm
03:45 PM 74.7°F23.7°C 73.8°F23.2°C 97% 9.2 mph SW14.8 kmh SW 10.4 mph16.7 kmh 31.70 in1073.5 mb - 0.00 in0.0 mm 0.00 in0.0 mm
03:50 PM 74.6°F23.7°C 73.7°F23.2°C 97% 9.2 mph SW14.8 kmh SW 11.5 mph18.5 kmh 31.70 in1073.5 mb - 0.00 in0.0 mm 0.00 in0.0 mm
03:55 PM 74.5°F23.6°C 73.6°F23.1°C 97% 11.5 mph SW18.5 kmh SW 12.7 mph20.4 kmh 31.70 in1073.5 mb - 0.00 in0.0 mm 0.00 in0.0 mm
04:00 PM 74.3°F23.5°C 73.4°F23.0°C 97% 11.5 mph SW18.5 kmh SW 13.8 mph22.2 kmh 31.70 in1073.5 mb - 0.00 in0.0 mm 0.00 in0.0 mm
04:10 PM 74.3°F23.5°C 73.1°F22.8°C 96% 11.5 mph SW18.5 kmh SW 12.7 mph20.4 kmh 31.70 in1073.5 mb - 0.00 in0.0 mm 0.00 in0.0 mm
04:15 PM 74.5°F23.6°C 73.3°F22.9°C 96% 8.1 mph SW13.0 kmh SW 9.2 mph14.8 kmh 31.70 in1073.5 mb - 0.00 in0.0 mm 0.00 in0.0 mm
04:20 PM 74.8°F23.8°C 73.6°F23.1°C 96% 5.8 mph SW9.3 kmh SW 6.9 mph11.1 kmh 31.70 in1073.5 mb - 0.00 in0.0 mm 0.00 in0.0 mm
04:25 PM 75.6°F24.2°C 73.8°F23.2°C 94% 6.9 mph SW11.1 kmh SW 11.5 mph18.5 kmh 31.70 in1073.5 mb - 0.00 in0.0 mm 0.00 in0.0 mm
04:30 PM 75.6°F24.2°C 73.4°F23.0°C 93% 5.8 mph SW9.3 kmh SW 6.9 mph11.1 kmh 31.70 in1073.5 mb - 0.00 in0.0 mm 0.00 in0.0 mm
04:35 PM 75.0°F23.9°C 73.5°F23.1°C 95% 5.8 mph SW9.3 kmh SW 8.1 mph13.0 kmh 31.70 in1073.5 mb - 0.00 in0.0 mm 0.00 in0.0 mm
04:40 PM 75.0°F23.9°C 73.5°F23.1°C 95% 5.8 mph SSW9.3 kmh SSW 5.8 mph9.3 kmh 31.70 in1073.5 mb - 0.00 in0.0 mm 0.00 in0.0 mm
04:45 PM 74.7°F23.7°C 73.5°F23.1°C 96% 8.1 mph SW13.0 kmh SW 10.4 mph16.7 kmh 31.70 in1073.5 mb - 0.00 in0.0 mm 0.00 in0.0 mm
04:50 PM 74.5°F23.6°C 73.3°F22.9°C 96% 6.9 mph SSW11.1 kmh SSW 6.9 mph11.1 kmh 31.70 in1073.5 mb - 0.00 in0.0 mm 0.00 in0.0 mm
04:55 PM 74.5°F23.6°C 73.3°F22.9°C 96% 5.8 mph SW9.3 kmh SW 10.4 mph16.7 kmh 31.70 in1073.5 mb - 0.00 in0.0 mm 0.00 in0.0 mm
05:00 PM 74.5°F23.6°C 73.3°F22.9°C 96% 6.9 mph WSW11.1 kmh WSW 9.2 mph14.8 kmh 31.70 in1073.5 mb - 0.00 in0.0 mm 0.00 in0.0 mm
05:10 PM 74.1°F23.4°C 73.2°F22.9°C 97% 6.9 mph SSW11.1 kmh SSW 8.1 mph13.0 kmh 31.70 in1073.5 mb - 0.00 in0.0 mm 0.00 in0.0 mm
05:15 PM 74.1°F23.4°C 73.2°F22.9°C 97% 8.1 mph SW13.0 kmh SW 8.1 mph13.0 kmh 31.70 in1073.5 mb - 0.00 in0.0 mm 0.00 in0.0 mm
05:20 PM 74.0°F23.3°C 73.1°F22.8°C 97% 5.8 mph SW9.3 kmh SW 6.9 mph11.1 kmh 31.70 in1073.5 mb - 0.00 in0.0 mm 0.00 in0.0 mm
05:25 PM 74.0°F23.3°C 73.1°F22.8°C 97% 4.6 mph SW7.4 kmh SW 4.6 mph7.4 kmh 31.70 in1073.5 mb - 0.00 in0.0 mm 0.00 in0.0 mm
05:30 PM 74.1°F23.4°C 72.9°F22.7°C 96% 5.8 mph SW9.3 kmh SW 5.8 mph9.3 kmh 31.70 in1073.5 mb - 0.00 in0.0 mm 0.00 in0.0 mm
05:35 PM 74.1°F23.4°C 72.9°F22.7°C 96% 5.8 mph SW9.3 kmh SW 5.8 mph9.3 kmh 31.70 in1073.5 mb - 0.00 in0.0 mm 0.00 in0.0 mm
05:40 PM 74.1°F23.4°C 72.9°F22.7°C 96% 5.8 mph SW9.3 kmh SW 6.9 mph11.1 kmh 31.70 in1073.5 mb - 0.00 in0.0 mm 0.00 in0.0 mm
05:45 PM 74.1°F23.4°C 72.9°F22.7°C 96% 4.6 mph SW7.4 kmh SW 5.8 mph9.3 kmh 31.70 in1073.5 mb - 0.00 in0.0 mm 0.00 in0.0 mm
05:50 PM 74.7°F23.7°C 73.2°F22.9°C 95% 5.8 mph WSW9.3 kmh WSW 6.9 mph11.1 kmh 31.70 in1073.5 mb - 0.00 in0.0 mm 0.00 in0.0 mm
05:55 PM 74.9°F23.8°C 73.4°F23.0°C 95% 3.5 mph S5.6 kmh S 4.6 mph7.4 kmh 31.70 in1073.5 mb - 0.00 in0.0 mm 0.00 in0.0 mm
06:00 PM 75.0°F23.9°C 73.5°F23.1°C 95% 2.3 mph S3.7 kmh S 2.3 mph3.7 kmh 31.70 in1073.5 mb - 0.00 in0.0 mm 0.00 in0.0 mm
06:10 PM 74.5°F23.6°C 73.0°F22.8°C 95% 4.6 mph WSW7.4 kmh WSW 5.8 mph9.3 kmh 31.70 in1073.5 mb - 0.00 in0.0 mm 0.00 in0.0 mm
06:15 PM 74.5°F23.6°C 73.0°F22.8°C 95% 4.6 mph W7.4 kmh W 6.9 mph11.1 kmh 31.70 in1073.5 mb - 0.00 in0.0 mm 0.00 in0.0 mm
06:20 PM 74.5°F23.6°C 73.3°F22.9°C 96% 5.8 mph SW9.3 kmh SW 9.2 mph14.8 kmh 31.70 in1073.5 mb - 0.00 in0.0 mm 0.00 in0.0 mm
06:25 PM 74.1°F23.4°C 73.2°F22.9°C 97% 8.1 mph SW13.0 kmh SW 9.2 mph14.8 kmh 31.70 in1073.5 mb - 0.00 in0.0 mm 0.00 in0.0 mm
06:30 PM 74.1°F23.4°C 73.2°F22.9°C 97% 4.6 mph SSW7.4 kmh SSW 5.8 mph9.3 kmh 31.70 in1073.5 mb - 0.00 in0.0 mm 0.00 in0.0 mm
06:35 PM 74.0°F23.3°C 73.1°F22.8°C 97% 4.6 mph SW7.4 kmh SW 4.6 mph7.4 kmh 31.70 in1073.5 mb - 0.00 in0.0 mm 0.00 in0.0 mm
06:40 PM 74.0°F23.3°C 73.1°F22.8°C 97% 3.5 mph WSW5.6 kmh WSW 4.6 mph7.4 kmh 31.70 in1073.5 mb - 0.00 in0.0 mm 0.00 in0.0 mm
06:45 PM 74.0°F23.3°C 72.8°F22.7°C 96% 5.8 mph S9.3 kmh S 6.9 mph11.1 kmh 31.70 in1073.5 mb - 0.00 in0.0 mm 0.00 in0.0 mm
06:50 PM 73.8°F23.2°C 72.9°F22.7°C 97% 8.1 mph SW13.0 kmh SW 8.1 mph13.0 kmh 31.70 in1073.5 mb - 0.00 in0.0 mm 0.00 in0.0 mm
06:55 PM 73.8°F23.2°C 73.2°F22.9°C 98% 8.1 mph SW13.0 kmh SW 9.2 mph14.8 kmh 31.70 in1073.5 mb - 0.00 in0.0 mm 0.00 in0.0 mm
07:00 PM 73.6°F23.1°C 73.0°F22.8°C 98% 6.9 mph SW11.1 kmh SW 6.9 mph11.1 kmh 31.70 in1073.5 mb - 0.00 in0.0 mm 0.00 in0.0 mm
07:10 PM 73.8°F23.2°C 72.9°F22.7°C 97% 4.6 mph SSW7.4 kmh SSW 5.8 mph9.3 kmh 31.70 in1073.5 mb - 0.00 in0.0 mm 0.00 in0.0 mm
07:15 PM 73.8°F23.2°C 72.9°F22.7°C 97% 4.6 mph S7.4 kmh S 5.8 mph9.3 kmh 31.70 in1073.5 mb - 0.00 in0.0 mm 0.00 in0.0 mm
07:20 PM 73.5°F23.1°C 72.9°F22.7°C 98% 6.9 mph SW11.1 kmh SW 10.4 mph16.7 kmh 31.70 in1073.5 mb - 0.00 in0.0 mm 0.00 in0.0 mm
07:25 PM 73.2°F22.9°C 72.6°F22.6°C 98% 10.4 mph SW16.7 kmh SW 10.4 mph16.7 kmh 31.70 in1073.5 mb - 0.00 in0.0 mm 0.00 in0.0 mm
07:30 PM 73.2°F22.9°C 72.9°F22.7°C 99% 6.9 mph SW11.1 kmh SW 9.2 mph14.8 kmh 31.70 in1073.5 mb - 0.00 in0.0 mm 0.00 in0.0 mm
07:35 PM 73.1°F22.8°C 72.8°F22.7°C 99% 6.9 mph SSW11.1 kmh SSW 8.1 mph13.0 kmh 31.70 in1073.5 mb - 0.00 in0.0 mm 0.00 in0.0 mm
07:40 PM 73.1°F22.8°C 72.8°F22.7°C 99% 4.6 mph SW7.4 kmh SW 5.8 mph9.3 kmh 31.70 in1073.5 mb - 0.00 in0.0 mm 0.00 in0.0 mm
07:45 PM 72.7°F22.6°C 72.4°F22.4°C 99% 9.2 mph SW14.8 kmh SW 10.4 mph16.7 kmh 31.70 in1073.5 mb - 0.00 in0.0 mm 0.00 in0.0 mm
07:50 PM 72.7°F22.6°C 72.4°F22.4°C 99% 5.8 mph SSW9.3 kmh SSW 5.8 mph9.3 kmh 31.70 in1073.5 mb - 0.00 in0.0 mm 0.00 in0.0 mm
07:55 PM 72.5°F22.5°C 72.2°F22.3°C 99% 3.5 mph SW5.6 kmh SW 3.5 mph5.6 kmh 31.70 in1073.5 mb - 0.00 in0.0 mm 0.00 in0.0 mm
08:00 PM 72.4°F22.4°C 72.1°F22.3°C 99% 5.8 mph SW9.3 kmh SW 6.9 mph11.1 kmh 31.70 in1073.5 mb - 0.00 in0.0 mm 0.00 in0.0 mm
08:10 PM 72.3°F22.4°C 72.0°F22.2°C 99% 5.8 mph SW9.3 kmh SW 8.1 mph13.0 kmh 31.70 in1073.5 mb - 0.00 in0.0 mm 0.00 in0.0 mm
08:15 PM 72.3°F22.4°C 72.0°F22.2°C 99% 4.6 mph SW7.4 kmh SW 4.6 mph7.4 kmh 31.70 in1073.5 mb - 0.00 in0.0 mm 0.00 in0.0 mm
08:20 PM 72.3°F22.4°C 72.0°F22.2°C 99% 5.8 mph SW9.3 kmh SW 6.9 mph11.1 kmh 31.70 in1073.5 mb - 0.00 in0.0 mm 0.00 in0.0 mm
08:25 PM 72.3°F22.4°C 72.0°F22.2°C 99% 2.3 mph SW3.7 kmh SW 3.5 mph5.6 kmh 31.70 in1073.5 mb - 0.00 in0.0 mm 0.00 in0.0 mm
08:30 PM 72.3°F22.4°C 72.0°F22.2°C 99% 3.5 mph SW5.6 kmh SW 4.6 mph7.4 kmh 31.70 in1073.5 mb - 0.00 in0.0 mm 0.00 in0.0 mm
08:35 PM 72.3°F22.4°C 72.0°F22.2°C 99% 3.5 mph S5.6 kmh S 4.6 mph7.4 kmh 31.70 in1073.5 mb - 0.00 in0.0 mm 0.00 in0.0 mm
08:45 PM 72.3°F22.4°C 72.0°F22.2°C 99% 3.5 mph NW5.6 kmh NW 5.8 mph9.3 kmh 31.70 in1073.5 mb - 0.00 in0.0 mm 0.00 in0.0 mm
08:50 PM 72.3°F22.4°C 72.0°F22.2°C 99% 3.5 mph NW5.6 kmh NW 5.8 mph9.3 kmh 31.70 in1073.5 mb - 0.00 in0.0 mm 0.00 in0.0 mm
08:55 PM 72.2°F22.3°C 71.9°F22.2°C 99% 5.8 mph SW9.3 kmh SW 8.1 mph13.0 kmh 31.70 in1073.5 mb - 0.00 in0.0 mm 0.00 in0.0 mm
09:00 PM 72.2°F22.3°C 71.9°F22.2°C 99% 4.6 mph WSW7.4 kmh WSW 6.9 mph11.1 kmh 31.70 in1073.5 mb - 0.00 in0.0 mm 0.00 in0.0 mm
09:10 PM 72.2°F22.3°C 71.9°F22.2°C 99% 3.5 mph SSW5.6 kmh SSW 6.9 mph11.1 kmh 31.70 in1073.5 mb - 0.00 in0.0 mm 0.00 in0.0 mm
09:15 PM 72.2°F22.3°C 71.9°F22.2°C 99% 3.5 mph S5.6 kmh S 3.5 mph5.6 kmh 31.79 in1076.5 mb - 0.00 in0.0 mm 0.00 in0.0 mm
09:20 PM 72.2°F22.3°C 71.9°F22.2°C 99% 3.5 mph S5.6 kmh S 5.8 mph9.3 kmh 31.79 in1076.5 mb - 0.00 in0.0 mm 0.00 in0.0 mm
09:25 PM 72.2°F22.3°C 71.9°F22.2°C 99% 3.5 mph S5.6 kmh S 4.6 mph7.4 kmh 31.79 in1076.5 mb - 0.00 in0.0 mm 0.00 in0.0 mm
09:30 PM 72.2°F22.3°C 71.9°F22.2°C 99% 3.5 mph SSW5.6 kmh SSW 4.6 mph7.4 kmh 31.66 in1072.1 mb - 0.00 in0.0 mm 0.00 in0.0 mm
09:35 PM 72.2°F22.3°C 71.9°F22.2°C 99% 4.6 mph S7.4 kmh S 5.8 mph9.3 kmh 31.66 in1072.1 mb - 0.00 in0.0 mm 0.00 in0.0 mm
09:40 PM 72.2°F22.3°C 71.9°F22.2°C 99% 5.8 mph SW9.3 kmh SW 6.9 mph11.1 kmh 31.62 in1070.8 mb - 0.00 in0.0 mm 0.00 in0.0 mm
09:45 PM 72.0°F22.2°C 71.7°F22.1°C 99% 2.3 mph SSW3.7 kmh SSW 4.6 mph7.4 kmh 31.62 in1070.8 mb - 0.00 in0.0 mm 0.00 in0.0 mm
09:50 PM 72.0°F22.2°C 71.7°F22.1°C 99% 3.5 mph WSW5.6 kmh WSW 4.6 mph7.4 kmh 31.54 in1068.1 mb - 0.00 in0.0 mm 0.00 in0.0 mm
09:55 PM 71.8°F22.1°C 71.5°F21.9°C 99% 3.5 mph WSW5.6 kmh WSW 2.3 mph3.7 kmh 31.54 in1068.1 mb - 0.00 in0.0 mm 0.00 in0.0 mm
10:00 PM 71.8°F22.1°C 71.5°F21.9°C 99% 3.5 mph W5.6 kmh W 4.6 mph7.4 kmh 31.54 in1068.1 mb - 0.00 in0.0 mm 0.00 in0.0 mm
10:10 PM 71.6°F22.0°C 71.3°F21.8°C 99% 3.5 mph SW5.6 kmh SW 3.5 mph5.6 kmh 31.48 in1066.0 mb - 0.00 in0.0 mm 0.00 in0.0 mm
10:15 PM 71.6°F22.0°C 71.3°F21.8°C 99% 3.5 mph W5.6 kmh W 4.6 mph7.4 kmh 31.38 in1062.6 mb - 0.00 in0.0 mm 0.00 in0.0 mm
10:20 PM 71.6°F22.0°C 71.3°F21.8°C 99% 3.5 mph NW5.6 kmh NW 5.8 mph9.3 kmh 31.38 in1062.6 mb - 0.00 in0.0 mm 0.00 in0.0 mm
10:25 PM 71.6°F22.0°C 71.3°F21.8°C 99% 3.5 mph WSW5.6 kmh WSW 4.6 mph7.4 kmh 31.38 in1062.6 mb - 0.00 in0.0 mm 0.00 in0.0 mm
10:30 PM 71.6°F22.0°C 71.3°F21.8°C 99% 3.5 mph SW5.6 kmh SW 3.5 mph5.6 kmh 31.35 in1061.6 mb - 0.00 in0.0 mm 0.00 in0.0 mm
10:35 PM 71.6°F22.0°C 71.3°F21.8°C 99% 3.5 mph WSW5.6 kmh WSW 3.5 mph5.6 kmh 31.35 in1061.6 mb - 0.00 in0.0 mm 0.00 in0.0 mm
10:40 PM 71.6°F22.0°C 71.3°F21.8°C 99% 2.3 mph SW3.7 kmh SW 4.6 mph7.4 kmh 31.33 in1061.0 mb - 0.00 in0.0 mm 0.00 in0.0 mm
10:45 PM 71.6°F22.0°C 71.3°F21.8°C 99% 3.5 mph S5.6 kmh S 3.5 mph5.6 kmh 31.33 in1061.0 mb - 0.00 in0.0 mm 0.00 in0.0 mm
10:50 PM 71.6°F22.0°C 71.3°F21.8°C 99% 2.3 mph SSW3.7 kmh SSW 3.5 mph5.6 kmh 31.31 in1060.3 mb - 0.00 in0.0 mm 0.00 in0.0 mm
10:55 PM 71.6°F22.0°C 71.3°F21.8°C 99% 1.2 mph SW1.9 kmh SW 2.3 mph3.7 kmh 31.30 in1059.9 mb - 0.00 in0.0 mm 0.00 in0.0 mm
11:00 PM 71.3°F21.8°C 71.0°F21.7°C 99% 2.3 mph W3.7 kmh W 3.5 mph5.6 kmh 31.30 in1059.9 mb - 0.00 in0.0 mm 0.00 in0.0 mm
11:10 PM 71.3°F21.8°C 71.0°F21.7°C 99% Calm Calm 1.2 mph1.9 kmh 31.28 in1059.3 mb - 0.00 in0.0 mm 0.00 in0.0 mm
11:15 PM 71.1°F21.7°C 70.8°F21.6°C 99% 3.5 mph W5.6 kmh W 5.8 mph9.3 kmh 31.23 in1057.6 mb - 0.00 in0.0 mm 0.00 in0.0 mm
11:20 PM 70.9°F21.6°C 70.6°F21.4°C 99% 2.3 mph S3.7 kmh S 2.3 mph3.7 kmh 31.23 in1057.6 mb - 0.00 in0.0 mm 0.00 in0.0 mm
11:25 PM 70.9°F21.6°C 70.6°F21.4°C 99% 2.3 mph N3.7 kmh N 2.3 mph3.7 kmh 31.22 in1057.2 mb - 0.00 in0.0 mm 0.00 in0.0 mm
11:30 PM 70.9°F21.6°C 70.6°F21.4°C 99% 2.3 mph W3.7 kmh W 3.5 mph5.6 kmh 31.22 in1057.2 mb - 0.00 in0.0 mm 0.00 in0.0 mm
11:35 PM 70.7°F21.5°C 70.4°F21.3°C 99% Calm Calm -- 31.22 in1057.2 mb - 0.00 in0.0 mm 0.00 in0.0 mm
11:40 PM 70.7°F21.5°C 70.4°F21.3°C 99% 2.3 mph WSW3.7 kmh WSW 4.6 mph7.4 kmh 31.24 in1057.9 mb - 0.00 in0.0 mm 0.00 in0.0 mm
11:45 PM 70.7°F21.5°C 70.4°F21.3°C 99% 2.3 mph WSW3.7 kmh WSW 4.6 mph7.4 kmh 31.24 in1057.9 mb - 0.00 in0.0 mm 0.00 in0.0 mm
11:50 PM 70.5°F21.4°C 70.2°F21.2°C 99% 2.3 mph WSW3.7 kmh WSW 3.5 mph5.6 kmh 31.25 in1058.2 mb - 0.00 in0.0 mm 0.00 in0.0 mm
11:55 PM 70.5°F21.4°C 70.2°F21.2°C 99% 2.3 mph SSE3.7 kmh SSE 3.5 mph5.6 kmh 31.25 in1058.2 mb - 0.00 in0.0 mm 0.00 in0.0 mm